Time;durP1;ratioP1;P1;durP2;ratioP2;P2;SDS_P1;SDS_P2;PMS_P1;PMS_P2;Temp;Humidity;BMP_temperature;BMP_pressure;BME280_temperature;BME280_humidity;BME280_pressure;Samples;Min_cycle;Max_cycle;Signal;HPM_P1;HPM_P2
2022/02/20 00:02:08;;;;;;;8.45;4.50;;;;;;;;;;5034350;28;20480;-87
2022/02/20 00:04:34;;;;;;;10.73;5.70;;;;;;;;;;5052832;28;20484;-87
2022/02/20 00:07:00;;;;;;;9.15;4.75;;;;;;;;;;5052404;28;20459;-87
2022/02/20 00:09:26;;;;;;;7.47;4.63;;;;;;;;;;5053271;28;20060;-87
2022/02/20 00:11:52;;;;;;;10.77;5.18;;;;;;;;;;5034558;28;20022;-87
2022/02/20 00:14:18;;;;;;;11.13;5.60;;;;;;;;;;5034744;28;20060;-87
2022/02/20 00:16:44;;;;;;;9.68;5.32;;;;;;;;;;5034561;28;20048;-87
2022/02/20 00:19:11;;;;;;;12.18;5.07;;;;;;;;;;5034923;28;20365;-88
2022/02/20 00:21:37;;;;;;;10.35;5.03;;;;;;;;;;5034289;28;20017;-87
2022/02/20 00:24:03;;;;;;;9.55;5.05;;;;;;;;;;5033733;28;20025;-86
2022/02/20 00:26:29;;;;;;;11.60;5.20;;;;;;;;;;5033604;28;20132;-88
2022/02/20 00:28:55;;;;;;;9.18;4.75;;;;;;;;;;5034022;28;20056;-87
2022/02/20 00:31:21;;;;;;;9.60;4.30;;;;;;;;;;5052424;28;20096;-87
2022/02/20 00:33:49;;;;;;;9.32;5.13;;;;;;;;;;5034602;28;20103;-87
2022/02/20 00:36:15;;;;;;;11.82;4.82;;;;;;;;;;5029108;28;20045;-87
2022/02/20 00:38:41;;;;;;;8.15;4.32;;;;;;;;;;5032715;28;20029;-87
2022/02/20 00:41:07;;;;;;;8.90;4.13;;;;;;;;;;5031148;28;20033;-87
2022/02/20 00:43:33;;;;;;;9.18;4.18;;;;;;;;;;5031079;28;20033;-87
2022/02/20 00:45:59;;;;;;;8.10;4.50;;;;;;;;;;5031387;28;20412;-88
2022/02/20 00:48:25;;;;;;;11.13;4.70;;;;;;;;;;5033095;28;20124;-86
2022/02/20 00:50:51;;;;;;;10.40;4.60;;;;;;;;;;5033154;28;20025;-88
2022/02/20 00:53:18;;;;;;;11.88;6.18;;;;;;;;;;5033157;28;20477;-87
2022/02/20 00:55:44;;;;;;;10.82;5.30;;;;;;;;;;5031472;28;20025;-87
2022/02/20 00:58:10;;;;;;;8.25;4.63;;;;;;;;;;5035017;28;20455;-88
2022/02/20 01:00:36;;;;;;;11.48;5.78;;;;;;;;;;5035856;28;20107;-88
2022/02/20 01:03:03;;;;;;;9.32;5.28;;;;;;;;;;5034885;28;20030;-88
2022/02/20 01:05:29;;;;;;;9.15;5.60;;;;;;;;;;5035677;28;20037;-87
2022/02/20 01:07:55;;;;;;;9.43;4.82;;;;;;;;;;5036912;28;20030;-87
2022/02/20 01:10:21;;;;;;;13.00;5.68;;;;;;;;;;5035157;28;20039;-87
2022/02/20 01:12:47;;;;;;;11.02;5.40;;;;;;;;;;5032653;28;20030;-87
2022/02/20 01:15:14;;;;;;;13.98;6.22;;;;;;;;;;5016765;28;20026;-87
2022/02/20 01:17:40;;;;;;;11.15;5.70;;;;;;;;;;5032062;28;20026;-88
2022/02/20 01:20:09;;;;;;;9.23;5.82;;;;;;;;;;5034572;28;20112;-88
2022/02/20 01:22:35;;;;;;;10.88;5.20;;;;;;;;;;5034475;28;20025;-87
2022/02/20 01:25:01;;;;;;;9.85;4.85;;;;;;;;;;5034944;28;20136;-87
2022/02/20 01:27:27;;;;;;;9.10;5.22;;;;;;;;;;5035893;28;20022;-88
2022/02/20 01:29:53;;;;;;;8.75;4.97;;;;;;;;;;5037660;28;20025;-86
2022/02/20 01:32:19;;;;;;;11.30;5.40;;;;;;;;;;5037457;28;20022;-88
2022/02/20 01:34:45;;;;;;;8.50;3.90;;;;;;;;;;5032965;28;20091;-88
2022/02/20 01:37:11;;;;;;;7.97;3.42;;;;;;;;;;5033187;28;20112;-86
2022/02/20 01:39:37;;;;;;;7.55;3.55;;;;;;;;;;5033276;28;20025;-88
2022/02/20 01:42:04;;;;;;;8.52;3.63;;;;;;;;;;5032995;28;20116;-85
2022/02/20 01:44:32;;;;;;;7.38;3.55;;;;;;;;;;5037135;28;20119;-85
2022/02/20 01:47:16;;;;;;;7.75;3.42;;;;;;;;;;5049486;28;20584;-85
2022/02/20 01:49:43;;;;;;;7.38;2.97;;;;;;;;;;5054279;28;20021;-85
2022/02/20 01:52:09;;;;;;;9.23;3.67;;;;;;;;;;5033369;28;20021;-87
2022/02/20 01:54:35;;;;;;;7.10;3.25;;;;;;;;;;5033989;28;20047;-85
2022/02/20 01:57:01;;;;;;;7.70;3.20;;;;;;;;;;5034173;28;20052;-86
2022/02/20 01:59:27;;;;;;;7.72;3.30;;;;;;;;;;5035293;28;20031;-86
2022/02/20 02:01:54;;;;;;;8.73;3.45;;;;;;;;;;5035130;28;20032;-85
2022/02/20 02:04:20;;;;;;;7.25;3.08;;;;;;;;;;5033889;28;20034;-85
2022/02/20 02:06:47;;;;;;;7.60;3.95;;;;;;;;;;5035543;28;20658;-86
2022/02/20 02:09:13;;;;;;;10.02;4.43;;;;;;;;;;5035078;28;20021;-86
2022/02/20 02:11:40;;;;;;;8.13;3.83;;;;;;;;;;5034660;28;20147;-85
2022/02/20 02:14:06;;;;;;;8.88;4.57;;;;;;;;;;5035311;28;20037;-86
2022/02/20 02:16:32;;;;;;;7.65;3.80;;;;;;;;;;5036199;28;20088;-86
2022/02/20 02:18:58;;;;;;;9.30;4.18;;;;;;;;;;5035948;28;20045;-86
2022/02/20 02:21:24;;;;;;;7.72;3.70;;;;;;;;;;5033968;28;20505;-86
2022/02/20 02:23:50;;;;;;;7.28;3.63;;;;;;;;;;5035837;28;20026;-86
2022/02/20 02:26:18;;;;;;;11.25;4.00;;;;;;;;;;5034899;28;20498;-86
2022/02/20 02:28:44;;;;;;;9.35;3.90;;;;;;;;;;5033277;28;20072;-85
2022/02/20 02:31:12;;;;;;;11.80;3.90;;;;;;;;;;5035707;28;20044;-86
2022/02/20 02:33:38;;;;;;;8.30;3.80;;;;;;;;;;5033017;28;20030;-86
2022/02/20 02:36:05;;;;;;;8.30;3.50;;;;;;;;;;5051938;28;20409;-86
2022/02/20 02:38:31;;;;;;;8.18;3.90;;;;;;;;;;5036643;28;20040;-86
2022/02/20 02:40:59;;;;;;;7.72;3.72;;;;;;;;;;5036017;28;20029;-86
2022/02/20 02:43:26;;;;;;;7.50;4.32;;;;;;;;;;5036665;28;20119;-86
2022/02/20 02:45:52;;;;;;;6.68;3.70;;;;;;;;;;5035159;28;20072;-86
2022/02/20 02:48:18;;;;;;;11.43;4.35;;;;;;;;;;5036662;28;20029;-86
2022/02/20 02:50:46;;;;;;;7.97;4.13;;;;;;;;;;5035698;28;20491;-85
2022/02/20 02:53:12;;;;;;;9.55;4.10;;;;;;;;;;5036609;28;20017;-86
2022/02/20 02:55:39;;;;;;;10.93;4.05;;;;;;;;;;5046726;28;20036;-85
2022/02/20 02:58:05;;;;;;;8.80;4.70;;;;;;;;;;5044983;28;20120;-86
2022/02/20 03:00:33;;;;;;;7.53;3.97;;;;;;;;;;5056646;28;20055;-86
2022/02/20 03:02:59;;;;;;;8.10;4.35;;;;;;;;;;5037352;28;20435;-85
2022/02/20 03:05:25;;;;;;;8.38;3.70;;;;;;;;;;5053716;28;20397;-85
2022/02/20 03:07:51;;;;;;;6.72;3.72;;;;;;;;;;5036396;28;20123;-86
2022/02/20 03:10:17;;;;;;;11.15;4.55;;;;;;;;;;5054520;28;20032;-85
2022/02/20 03:12:43;;;;;;;7.82;3.75;;;;;;;;;;5054169;28;20017;-85
2022/02/20 03:15:10;;;;;;;9.55;4.50;;;;;;;;;;5053945;28;20029;-85
2022/02/20 03:17:36;;;;;;;6.47;3.60;;;;;;;;;;5036195;28;20032;-85
2022/02/20 03:20:02;;;;;;;5.55;3.10;;;;;;;;;;5034223;28;20090;-86
2022/02/20 03:22:28;;;;;;;6.18;4.15;;;;;;;;;;5034747;28;20105;-86
2022/02/20 03:24:54;;;;;;;7.43;3.40;;;;;;;;;;5035189;28;20036;-86
2022/02/20 03:27:23;;;;;;;7.18;4.03;;;;;;;;;;5035644;28;20463;-86
2022/02/20 03:29:49;;;;;;;10.48;4.18;;;;;;;;;;5053186;28;20086;-86
2022/02/20 03:32:15;;;;;;;10.25;3.67;;;;;;;;;;5035294;28;20080;-86
2022/02/20 03:34:41;;;;;;;8.23;3.90;;;;;;;;;;5049695;28;20049;-85
2022/02/20 03:37:09;;;;;;;9.73;4.10;;;;;;;;;;5018930;28;20033;-85
2022/02/20 03:39:35;;;;;;;7.00;3.80;;;;;;;;;;5015743;28;20053;-86
2022/02/20 03:42:02;;;;;;;6.57;3.50;;;;;;;;;;5015497;28;20044;-86
2022/02/20 03:44:29;;;;;;;7.00;3.90;;;;;;;;;;5015827;28;20026;-85
2022/02/20 03:46:55;;;;;;;6.90;3.22;;;;;;;;;;5015488;28;20029;-86
2022/02/20 03:49:21;;;;;;;6.28;3.03;;;;;;;;;;5032728;28;20495;-86
2022/02/20 03:51:47;;;;;;;9.05;3.70;;;;;;;;;;5031709;28;20437;-86
2022/02/20 03:54:13;;;;;;;7.57;3.50;;;;;;;;;;5014433;28;20021;-86
2022/02/20 03:56:39;;;;;;;7.32;2.97;;;;;;;;;;5014284;28;20030;-86
2022/02/20 03:59:05;;;;;;;6.88;3.58;;;;;;;;;;5031514;28;20022;-86
2022/02/20 04:01:31;;;;;;;8.57;3.42;;;;;;;;;;5013949;28;20036;-85
2022/02/20 04:03:57;;;;;;;5.60;2.78;;;;;;;;;;5015656;28;20029;-86
2022/02/20 04:06:23;;;;;;;5.78;2.97;;;;;;;;;;5019069;28;20396;-86
2022/02/20 04:08:49;;;;;;;9.60;2.95;;;;;;;;;;5048210;28;20033;-85
2022/02/20 04:11:15;;;;;;;6.97;3.20;;;;;;;;;;5033842;28;20177;-84
2022/02/20 04:13:41;;;;;;;5.97;2.67;;;;;;;;;;5051119;28;20035;-85
2022/02/20 04:16:07;;;;;;;7.47;3.65;;;;;;;;;;5024787;28;20025;-86
2022/02/20 04:18:33;;;;;;;7.45;3.92;;;;;;;;;;5023781;28;20033;-86
2022/02/20 04:20:59;;;;;;;6.53;2.20;;;;;;;;;;5025492;28;20026;-86
2022/02/20 04:23:30;;;;;;;7.55;3.05;;;;;;;;;;5023237;28;20040;-86
2022/02/20 04:26:01;;;;;;;7.75;2.45;;;;;;;;;;5021679;28;20032;-85
2022/02/20 04:28:28;;;;;;;6.70;2.30;;;;;;;;;;5016603;28;20025;-85
2022/02/20 04:30:54;;;;;;;5.38;1.98;;;;;;;;;;5036875;28;20120;-84
2022/02/20 04:33:20;;;;;;;4.47;2.05;;;;;;;;;;5043468;28;20029;-86
2022/02/20 04:35:46;;;;;;;3.83;1.70;;;;;;;;;;5033843;28;20048;-85
2022/02/20 04:38:12;;;;;;;5.65;2.00;;;;;;;;;;5041327;28;20088;-86
2022/02/20 04:40:38;;;;;;;4.65;1.70;;;;;;;;;;5041807;28;20064;-85
2022/02/20 04:43:04;;;;;;;5.32;2.65;;;;;;;;;;5040990;28;20037;-83
2022/02/20 04:45:30;;;;;;;5.35;1.85;;;;;;;;;;5039622;28;20481;-86
2022/02/20 04:47:57;;;;;;;4.07;1.60;;;;;;;;;;5035407;28;20128;-85
2022/02/20 04:50:23;;;;;;;4.65;1.83;;;;;;;;;;5037210;28;20025;-85
2022/02/20 04:52:49;;;;;;;4.68;1.42;;;;;;;;;;5036398;28;20128;-86
2022/02/20 04:55:15;;;;;;;6.05;1.45;;;;;;;;;;5037706;28;20466;-85
2022/02/20 04:57:41;;;;;;;4.20;1.38;;;;;;;;;;5040069;28;20500;-85
2022/02/20 05:00:10;;;;;;;3.80;1.20;;;;;;;;;;5037676;28;20041;-85
2022/02/20 05:02:36;;;;;;;2.90;0.95;;;;;;;;;;5037411;28;20064;-85
2022/02/20 05:05:02;;;;;;;3.80;1.30;;;;;;;;;;5039601;28;20447;-85
2022/02/20 05:07:29;;;;;;;2.90;1.02;;;;;;;;;;5039006;28;20026;-83
2022/02/20 05:09:55;;;;;;;2.13;0.80;;;;;;;;;;5038805;28;20018;-85
2022/02/20 05:12:21;;;;;;;2.90;1.00;;;;;;;;;;5039044;28;20102;-83
2022/02/20 05:14:47;;;;;;;3.13;0.90;;;;;;;;;;5049477;28;20488;-81
2022/02/20 05:17:14;;;;;;;4.18;1.10;;;;;;;;;;5039649;28;20033;-81
2022/02/20 05:19:40;;;;;;;4.50;1.27;;;;;;;;;;5034366;28;20060;-81
2022/02/20 05:22:06;;;;;;;4.15;1.27;;;;;;;;;;5037210;28;20048;-81
2022/02/20 05:24:32;;;;;;;3.33;0.82;;;;;;;;;;5037622;28;20032;-81
2022/02/20 05:26:58;;;;;;;4.35;1.45;;;;;;;;;;5037726;28;20038;-83
2022/02/20 05:29:24;;;;;;;3.55;1.23;;;;;;;;;;5038487;28;20068;-85
2022/02/20 05:31:50;;;;;;;2.92;1.08;;;;;;;;;;5039253;28;20014;-84
2022/02/20 05:34:16;;;;;;;3.13;0.98;;;;;;;;;;5040345;28;20828;-81
2022/02/20 05:36:42;;;;;;;5.18;1.42;;;;;;;;;;5058319;28;20029;-82
2022/02/20 05:39:08;;;;;;;3.45;1.15;;;;;;;;;;5058686;28;20086;-85
2022/02/20 05:41:34;;;;;;;3.90;1.25;;;;;;;;;;5040632;28;20086;-85
2022/02/20 05:44:00;;;;;;;4.30;1.20;;;;;;;;;;5039432;28;20025;-85
2022/02/20 05:46:26;;;;;;;3.92;1.40;;;;;;;;;;5058478;28;20099;-82
2022/02/20 05:48:52;;;;;;;3.35;1.38;;;;;;;;;;5069005;28;20025;-85
2022/02/20 05:51:18;;;;;;;4.30;1.30;;;;;;;;;;5050060;28;20028;-85
2022/02/20 05:53:44;;;;;;;4.38;1.52;;;;;;;;;;5069397;28;20025;-85
2022/02/20 05:56:11;;;;;;;2.75;1.10;;;;;;;;;;5048913;28;20052;-86
2022/02/20 05:58:37;;;;;;;6.70;1.40;;;;;;;;;;5051404;28;20036;-85
2022/02/20 06:01:03;;;;;;;4.22;1.65;;;;;;;;;;5067018;28;20029;-86
2022/02/20 06:03:29;;;;;;;4.35;1.95;;;;;;;;;;5049942;28;20029;-83
2022/02/20 06:05:55;;;;;;;3.05;1.45;;;;;;;;;;5063019;28;20021;-87
2022/02/20 06:08:21;;;;;;;3.97;1.55;;;;;;;;;;5036158;28;20511;-87
2022/02/20 06:10:47;;;;;;;3.65;1.17;;;;;;;;;;5040416;28;20021;-86
2022/02/20 06:13:13;;;;;;;5.28;1.33;;;;;;;;;;5037411;28;20439;-86
2022/02/20 06:15:42;;;;;;;3.72;1.55;;;;;;;;;;5036092;28;20029;-86
2022/02/20 06:18:08;;;;;;;4.43;1.40;;;;;;;;;;5053851;28;20392;-86
2022/02/20 06:20:35;;;;;;;4.05;1.17;;;;;;;;;;5039574;28;20119;-87
2022/02/20 06:23:01;;;;;;;5.50;1.20;;;;;;;;;;5036706;28;20032;-86
2022/02/20 06:25:29;;;;;;;3.83;1.58;;;;;;;;;;5054615;28;20381;-86
2022/02/20 06:27:55;;;;;;;6.10;2.20;;;;;;;;;;5037950;28;20029;-85
2022/02/20 06:30:21;;;;;;;5.22;1.48;;;;;;;;;;5043998;28;20070;-80
2022/02/20 06:32:48;;;;;;;5.38;1.50;;;;;;;;;;5060689;28;20013;-84
2022/02/20 06:35:14;;;;;;;2.53;1.05;;;;;;;;;;5040744;28;20155;-86
2022/02/20 06:37:40;;;;;;;3.55;1.30;;;;;;;;;;5039989;28;20033;-87
2022/02/20 06:40:07;;;;;;;3.45;1.40;;;;;;;;;;5045462;28;20020;-86
2022/02/20 06:42:33;;;;;;;4.10;1.33;;;;;;;;;;5052697;28;20140;-85
2022/02/20 06:44:59;;;;;;;3.95;1.48;;;;;;;;;;5043143;28;20479;-84
2022/02/20 06:47:25;;;;;;;4.13;1.50;;;;;;;;;;5056774;28;20074;-84
2022/02/20 06:49:51;;;;;;;4.60;1.40;;;;;;;;;;5037788;28;20029;-83
2022/02/20 06:52:17;;;;;;;3.42;1.40;;;;;;;;;;5039489;28;20025;-86
2022/02/20 06:54:43;;;;;;;3.03;1.13;;;;;;;;;;5039917;28;20025;-85
2022/02/20 06:57:09;;;;;;;4.32;1.33;;;;;;;;;;5044669;28;20503;-85
2022/02/20 06:59:35;;;;;;;3.58;1.42;;;;;;;;;;5043100;28;20029;-84
2022/02/20 07:02:01;;;;;;;3.70;1.40;;;;;;;;;;5063184;28;20033;-83
2022/02/20 07:04:29;;;;;;;4.15;1.08;;;;;;;;;;5061378;28;20100;-86
2022/02/20 07:06:55;;;;;;;3.33;1.30;;;;;;;;;;5041420;28;20446;-83
2022/02/20 07:09:21;;;;;;;3.10;1.25;;;;;;;;;;5057922;28;20085;-84
2022/02/20 07:11:47;;;;;;;3.30;1.25;;;;;;;;;;5057274;28;20062;-86
2022/02/20 07:14:13;;;;;;;3.50;1.50;;;;;;;;;;5038122;28;20104;-85
2022/02/20 07:16:39;;;;;;;2.80;1.10;;;;;;;;;;5055249;28;20506;-85
2022/02/20 07:19:05;;;;;;;2.97;1.15;;;;;;;;;;5056420;28;20028;-84
2022/02/20 07:21:31;;;;;;;4.50;1.67;;;;;;;;;;5055745;28;20048;-83
2022/02/20 07:23:59;;;;;;;3.63;1.35;;;;;;;;;;5058172;28;20013;-85
2022/02/20 07:26:29;;;;;;;3.47;1.30;;;;;;;;;;5039321;28;20025;-83
2022/02/20 07:28:56;;;;;;;4.07;1.55;;;;;;;;;;5056524;28;20017;-86
2022/02/20 07:31:22;;;;;;;4.07;1.45;;;;;;;;;;5055878;28;20021;-84
2022/02/20 07:33:52;;;;;;;3.42;1.20;;;;;;;;;;5038676;28;20438;-86
2022/02/20 07:36:18;;;;;;;2.90;1.25;;;;;;;;;;5056205;28;20037;-84
2022/02/20 07:38:44;;;;;;;3.63;1.40;;;;;;;;;;5038196;28;20036;-86
2022/02/20 07:41:10;;;;;;;2.90;1.20;;;;;;;;;;5055988;28;20112;-85
2022/02/20 07:43:36;;;;;;;3.88;1.48;;;;;;;;;;5055174;28;20686;-86
2022/02/20 07:46:03;;;;;;;5.53;1.73;;;;;;;;;;5037231;28;20028;-85
2022/02/20 07:48:29;;;;;;;3.65;1.42;;;;;;;;;;5037933;28;20123;-85
2022/02/20 07:50:55;;;;;;;4.43;1.30;;;;;;;;;;5056885;28;20452;-84
2022/02/20 07:53:21;;;;;;;4.10;1.77;;;;;;;;;;5055978;28;20112;-84
2022/02/20 07:55:47;;;;;;;4.53;1.80;;;;;;;;;;5055162;28;20049;-85
2022/02/20 07:58:15;;;;;;;4.28;1.70;;;;;;;;;;5054959;28;20143;-85
2022/02/20 08:00:41;;;;;;;3.22;1.40;;;;;;;;;;5056951;28;20127;-85
2022/02/20 08:03:09;;;;;;;3.28;1.42;;;;;;;;;;5054404;28;20033;-85
2022/02/20 08:05:35;;;;;;;3.70;1.48;;;;;;;;;;5058159;28;20119;-85
2022/02/20 08:08:01;;;;;;;3.92;1.40;;;;;;;;;;5064777;28;20087;-87
2022/02/20 08:10:27;;;;;;;3.40;1.25;;;;;;;;;;5067771;28;20031;-87
2022/02/20 08:12:55;;;;;;;3.55;1.77;;;;;;;;;;5049903;28;20075;-87
2022/02/20 08:15:21;;;;;;;3.20;1.40;;;;;;;;;;5070014;28;20043;-87
2022/02/20 08:17:48;;;;;;;4.22;1.70;;;;;;;;;;5048213;28;20029;-86
2022/02/20 08:20:14;;;;;;;4.32;1.60;;;;;;;;;;5045884;28;20086;-85
2022/02/20 08:22:41;;;;;;;4.75;1.60;;;;;;;;;;5064800;28;20037;-85
2022/02/20 08:25:08;;;;;;;5.10;1.45;;;;;;;;;;5046525;28;20063;-86
2022/02/20 08:27:35;;;;;;;3.83;1.80;;;;;;;;;;5046043;28;20023;-87
2022/02/20 08:30:01;;;;;;;4.35;1.73;;;;;;;;;;5060937;28;20033;-85
2022/02/20 08:32:27;;;;;;;4.85;1.80;;;;;;;;;;5063254;28;20408;-87
2022/02/20 08:34:53;;;;;;;3.45;1.70;;;;;;;;;;5042636;28;20097;-84
2022/02/20 08:37:19;;;;;;;5.13;1.98;;;;;;;;;;5042885;28;20069;-86
2022/02/20 08:39:45;;;;;;;3.78;1.63;;;;;;;;;;5042438;28;20112;-86
2022/02/20 08:42:11;;;;;;;4.35;2.00;;;;;;;;;;5042694;28;20029;-85
2022/02/20 08:44:37;;;;;;;3.58;1.85;;;;;;;;;;5044230;28;20076;-86
2022/02/20 08:47:04;;;;;;;4.28;1.70;;;;;;;;;;5043468;28;20026;-87
2022/02/20 08:49:30;;;;;;;4.38;1.83;;;;;;;;;;5041172;28;20032;-86
2022/02/20 08:51:56;;;;;;;4.00;1.67;;;;;;;;;;5041983;28;20060;-86
2022/02/20 08:54:23;;;;;;;3.78;1.88;;;;;;;;;;5040963;28;20045;-85
2022/02/20 08:56:49;;;;;;;3.80;1.60;;;;;;;;;;5042345;28;20032;-87
2022/02/20 08:59:15;;;;;;;4.60;2.05;;;;;;;;;;5039270;28;20516;-83
2022/02/20 09:01:41;;;;;;;3.55;1.70;;;;;;;;;;5042848;28;20036;-87
2022/02/20 09:04:07;;;;;;;4.30;1.67;;;;;;;;;;5041572;28;20056;-86
2022/02/20 09:06:35;;;;;;;4.88;2.25;;;;;;;;;;5040226;28;20021;-86
2022/02/20 09:09:01;;;;;;;3.45;1.80;;;;;;;;;;5039802;28;20044;-86
2022/02/20 09:11:28;;;;;;;4.22;1.60;;;;;;;;;;5046497;28;20018;-85
2022/02/20 09:13:54;;;;;;;3.45;1.55;;;;;;;;;;5051629;28;20002;-83
2022/02/20 09:16:20;;;;;;;4.85;1.50;;;;;;;;;;5051874;28;20032;-86
2022/02/20 09:18:46;;;;;;;3.03;1.48;;;;;;;;;;5038075;28;20029;-86
2022/02/20 09:21:13;;;;;;;4.22;1.55;;;;;;;;;;5036992;28;20116;-86
2022/02/20 09:23:39;;;;;;;5.22;2.03;;;;;;;;;;5036015;28;20105;-87
2022/02/20 09:26:05;;;;;;;4.88;1.73;;;;;;;;;;5035480;28;20397;-86
2022/02/20 09:28:31;;;;;;;4.10;1.98;;;;;;;;;;5036444;28;20025;-87
2022/02/20 09:30:58;;;;;;;3.35;1.67;;;;;;;;;;5034667;28;20527;-86
2022/02/20 09:33:24;;;;;;;3.92;1.80;;;;;;;;;;5035338;28;20013;-86
2022/02/20 09:35:50;;;;;;;4.40;1.60;;;;;;;;;;5034845;28;20052;-86
2022/02/20 09:38:16;;;;;;;3.85;1.48;;;;;;;;;;5036733;28;20033;-85
2022/02/20 09:40:43;;;;;;;4.43;1.58;;;;;;;;;;5034530;28;20025;-86
2022/02/20 09:43:12;;;;;;;4.75;1.80;;;;;;;;;;5035176;28;20026;-86
2022/02/20 09:45:38;;;;;;;5.03;2.10;;;;;;;;;;5036163;28;20025;-87
2022/02/20 09:48:04;;;;;;;4.47;1.52;;;;;;;;;;5034837;28;20029;-86
2022/02/20 09:50:30;;;;;;;5.15;1.90;;;;;;;;;;5037178;28;20021;-85
2022/02/20 09:52:56;;;;;;;4.07;1.90;;;;;;;;;;5037811;28;20052;-87
2022/02/20 09:55:23;;;;;;;3.90;1.70;;;;;;;;;;5037953;28;20028;-85
2022/02/20 09:57:49;;;;;;;4.85;1.70;;;;;;;;;;5037779;28;20033;-86
2022/02/20 10:00:15;;;;;;;4.97;1.85;;;;;;;;;;5037750;28;20155;-85
2022/02/20 10:02:44;;;;;;;4.38;1.63;;;;;;;;;;5035922;28;20041;-82
2022/02/20 10:05:17;;;;;;;3.22;1.50;;;;;;;;;;5039010;28;20029;-83
2022/02/20 10:07:43;;;;;;;4.47;1.50;;;;;;;;;;5037782;28;20428;-86
2022/02/20 10:10:25;;;;;;;4.28;1.75;;;;;;;;;;5037468;28;20017;-86
2022/02/20 10:12:58;;;;;;;5.68;1.60;;;;;;;;;;5037027;28;20022;-87
2022/02/20 10:15:42;;;;;;;3.63;1.48;;;;;;;;;;5035971;28;20060;-85
2022/02/20 10:18:22;;;;;;;4.38;1.60;;;;;;;;;;5038180;28;20053;-85
2022/02/20 10:20:51;;;;;;;4.07;1.38;;;;;;;;;;5037812;28;20041;-85
2022/02/20 10:23:17;;;;;;;6.57;1.67;;;;;;;;;;5037054;28;20048;-85
2022/02/20 10:25:44;;;;;;;3.83;1.40;;;;;;;;;;5033376;28;20029;-84
2022/02/20 10:28:10;;;;;;;3.38;1.35;;;;;;;;;;5035032;28;20030;-85
2022/02/20 10:30:37;;;;;;;3.65;1.60;;;;;;;;;;5037813;28;20018;-85
2022/02/20 10:33:05;;;;;;;3.90;1.65;;;;;;;;;;5036935;28;20036;-84
2022/02/20 10:35:35;;;;;;;3.47;1.30;;;;;;;;;;5050655;28;20105;-85
2022/02/20 10:38:08;;;;;;;4.05;1.20;;;;;;;;;;5040575;28;20033;-86
2022/02/20 10:40:34;;;;;;;3.13;1.30;;;;;;;;;;5058412;28;20029;-84
2022/02/20 10:43:02;;;;;;;2.90;1.20;;;;;;;;;;5058351;28;20028;-83
2022/02/20 10:45:46;;;;;;;3.22;1.40;;;;;;;;;;5056772;28;20036;-83
2022/02/20 10:48:16;;;;;;;3.10;1.08;;;;;;;;;;5057344;28;20031;-83
2022/02/20 10:50:42;;;;;;;3.15;1.20;;;;;;;;;;5057526;28;20017;-83
2022/02/20 10:53:08;;;;;;;2.95;0.95;;;;;;;;;;5039324;28;20462;-85
2022/02/20 10:55:35;;;;;;;3.45;1.33;;;;;;;;;;5057358;28;20013;-86
2022/02/20 10:58:07;;;;;;;2.92;1.15;;;;;;;;;;5039127;28;20112;-86
2022/02/20 11:00:33;;;;;;;3.08;1.27;;;;;;;;;;5039726;28;20051;-86
2022/02/20 11:03:08;;;;;;;4.25;1.20;;;;;;;;;;5039455;28;20037;-86
2022/02/20 11:05:35;;;;;;;4.10;1.50;;;;;;;;;;5039307;28;20027;-85
2022/02/20 11:08:01;;;;;;;2.10;0.90;;;;;;;;;;5057304;28;20435;-85
2022/02/20 11:10:27;;;;;;;3.25;1.10;;;;;;;;;;5054682;28;20106;-86
2022/02/20 11:12:54;;;;;;;3.58;1.38;;;;;;;;;;5055984;28;20036;-85
2022/02/20 11:15:20;;;;;;;3.72;1.33;;;;;;;;;;5040052;28;20080;-85
2022/02/20 11:17:46;;;;;;;3.88;1.25;;;;;;;;;;5057408;28;20035;-85
2022/02/20 11:20:13;;;;;;;2.45;1.00;;;;;;;;;;5038908;28;20029;-82
2022/02/20 11:22:41;;;;;;;3.15;1.00;;;;;;;;;;5058738;28;20033;-84
2022/02/20 11:25:07;;;;;;;3.85;1.30;;;;;;;;;;5056705;28;20025;-84
2022/02/20 11:27:37;;;;;;;4.00;1.10;;;;;;;;;;5039103;28;20151;-84
2022/02/20 11:30:03;;;;;;;3.55;1.17;;;;;;;;;;5055613;28;20032;-85
2022/02/20 11:32:30;;;;;;;2.58;0.88;;;;;;;;;;5038059;28;20037;-85
2022/02/20 11:34:56;;;;;;;3.10;1.27;;;;;;;;;;5056682;28;20095;-83
2022/02/20 11:37:22;;;;;;;2.88;1.10;;;;;;;;;;5058269;28;20439;-84
2022/02/20 11:39:58;;;;;;;2.90;1.30;;;;;;;;;;5056553;28;20039;-82
2022/02/20 11:42:25;;;;;;;3.75;1.45;;;;;;;;;;5057148;28;20105;-83
2022/02/20 11:44:55;;;;;;;3.00;1.00;;;;;;;;;;5057051;28;20092;-86
2022/02/20 11:47:36;;;;;;;2.60;0.90;;;;;;;;;;5055216;28;20066;-84
2022/02/20 11:50:14;;;;;;;3.63;1.00;;;;;;;;;;5057192;28;20048;-85
2022/02/20 11:52:48;;;;;;;3.90;1.20;;;;;;;;;;5039959;28;20035;-81
2022/02/20 11:55:14;;;;;;;3.10;1.20;;;;;;;;;;5038846;28;20023;-83
2022/02/20 11:57:40;;;;;;;2.78;1.05;;;;;;;;;;5056196;28;20033;-85
2022/02/20 12:00:07;;;;;;;3.70;1.05;;;;;;;;;;5057234;28;20050;-85
2022/02/20 12:02:33;;;;;;;2.45;1.08;;;;;;;;;;5058602;28;20021;-84
2022/02/20 12:05:00;;;;;;;3.15;1.10;;;;;;;;;;5059765;28;20055;-85
2022/02/20 12:07:44;;;;;;;3.58;0.90;;;;;;;;;;5039538;28;20048;-85
2022/02/20 12:10:20;;;;;;;3.28;1.10;;;;;;;;;;5058180;28;20049;-83
2022/02/20 12:12:49;;;;;;;3.78;1.13;;;;;;;;;;5038246;28;20097;-85
2022/02/20 12:15:34;;;;;;;3.33;1.02;;;;;;;;;;5037795;28;20021;-83
2022/02/20 12:18:23;;;;;;;3.45;0.95;;;;;;;;;;5045730;28;20055;-85
2022/02/20 12:20:53;;;;;;;3.05;1.00;;;;;;;;;;5040430;28;20029;-85
2022/02/20 12:23:28;;;;;;;2.20;0.80;;;;;;;;;;5057690;28;20492;-84
2022/02/20 12:25:54;;;;;;;3.63;1.05;;;;;;;;;;5057846;28;20396;-85
2022/02/20 12:28:40;;;;;;;2.65;1.02;;;;;;;;;;5040023;28;20021;-84
2022/02/20 12:31:15;;;;;;;1.88;0.80;;;;;;;;;;5037750;28;20022;-83
2022/02/20 12:33:48;;;;;;;4.22;1.75;;;;;;;;;;5056642;28;20085;-82
2022/02/20 12:36:23;;;;;;;3.08;0.88;;;;;;;;;;5056085;28;20053;-82
2022/02/20 12:38:50;;;;;;;2.13;0.90;;;;;;;;;;5055984;28;20025;-84
2022/02/20 12:41:16;;;;;;;3.13;1.20;;;;;;;;;;5039664;28;20047;-83
2022/02/20 12:43:48;;;;;;;4.35;1.00;;;;;;;;;;5038410;28;20399;-83
2022/02/20 12:46:14;;;;;;;3.87;1.33;;;;;;;;;;5039266;28;20593;-86
2022/02/20 12:48:40;;;;;;;3.90;1.20;;;;;;;;;;5058180;28;20036;-84
2022/02/20 12:51:09;;;;;;;3.10;1.10;;;;;;;;;;5056613;28;20025;-84
2022/02/20 12:53:35;;;;;;;3.35;1.20;;;;;;;;;;5040849;28;20021;-85
2022/02/20 12:56:06;;;;;;;3.72;0.90;;;;;;;;;;5042838;28;20503;-85
2022/02/20 12:58:45;;;;;;;4.22;1.30;;;;;;;;;;5043093;28;20587;-84
2022/02/20 13:01:12;;;;;;;3.67;1.67;;;;;;;;;;5059701;28;20017;-84
2022/02/20 13:03:38;;;;;;;3.13;0.98;;;;;;;;;;5061576;28;20025;-85
2022/02/20 13:06:04;;;;;;;2.85;1.00;;;;;;;;;;5042105;28;20120;-85
2022/02/20 13:08:32;;;;;;;2.60;0.95;;;;;;;;;;5043209;28;20021;-84
2022/02/20 13:10:58;;;;;;;4.57;1.60;;;;;;;;;;5058496;28;20017;-84
2022/02/20 13:13:24;;;;;;;3.95;1.10;;;;;;;;;;5057451;28;20116;-85
2022/02/20 13:15:57;;;;;;;4.55;1.42;;;;;;;;;;5044760;28;20056;-84
2022/02/20 13:18:23;;;;;;;4.07;1.33;;;;;;;;;;5055285;28;20029;-84
2022/02/20 13:21:06;;;;;;;5.35;2.20;;;;;;;;;;5058621;28;20083;-84
2022/02/20 13:23:36;;;;;;;6.20;1.80;;;;;;;;;;5060602;28;20028;-85
2022/02/20 13:26:03;;;;;;;1.65;0.70;;;;;;;;;;5058840;28;20032;-85
2022/02/20 13:28:32;;;;;;;2.85;0.90;;;;;;;;;;5057634;28;20480;-83
2022/02/20 13:31:02;;;;;;;3.92;1.00;;;;;;;;;;5040440;28;20499;-85
2022/02/20 13:33:35;;;;;;;3.85;1.00;;;;;;;;;;5043898;28;20021;-86
2022/02/20 13:36:03;;;;;;;4.07;1.85;;;;;;;;;;5060818;28;20041;-86
2022/02/20 13:38:30;;;;;;;4.75;1.20;;;;;;;;;;5061784;28;20033;-86
2022/02/20 13:40:57;;;;;;;2.30;0.75;;;;;;;;;;5060546;28;20025;-84
2022/02/20 13:43:24;;;;;;;4.13;1.15;;;;;;;;;;5042532;28;20029;-85
2022/02/20 13:45:51;;;;;;;2.42;0.88;;;;;;;;;;5061855;28;20021;-85
2022/02/20 13:48:28;;;;;;;2.42;0.75;;;;;;;;;;5062254;28;20025;-85
2022/02/20 13:51:10;;;;;;;3.22;0.80;;;;;;;;;;5043381;28;20029;-86
2022/02/20 13:53:46;;;;;;;3.03;0.73;;;;;;;;;;5043686;28;20021;-85
2022/02/20 13:56:15;;;;;;;4.25;0.90;;;;;;;;;;5061362;28;20104;-86
2022/02/20 13:58:42;;;;;;;5.93;2.47;;;;;;;;;;5042717;28;20029;-86
2022/02/20 14:01:09;;;;;;;3.35;0.82;;;;;;;;;;5041012;28;20515;-86
2022/02/20 14:03:36;;;;;;;2.85;0.85;;;;;;;;;;5061376;28;20033;-86
2022/02/20 14:06:02;;;;;;;3.38;1.23;;;;;;;;;;5055392;28;20104;-83
2022/02/20 14:08:28;;;;;;;3.63;0.90;;;;;;;;;;5071655;28;20043;-84
2022/02/20 14:11:00;;;;;;;3.60;0.90;;;;;;;;;;5050153;28;20017;-85
2022/02/20 14:13:26;;;;;;;3.50;1.00;;;;;;;;;;5060956;28;20009;-85
2022/02/20 14:16:01;;;;;;;3.25;1.00;;;;;;;;;;5059494;28;20021;-86
2022/02/20 14:18:27;;;;;;;1.88;0.60;;;;;;;;;;5042022;28;20029;-85
2022/02/20 14:20:55;;;;;;;4.28;1.00;;;;;;;;;;5041658;28;20044;-85
2022/02/20 14:23:29;;;;;;;3.85;1.08;;;;;;;;;;5061361;28;20025;-86
2022/02/20 14:26:03;;;;;;;2.42;0.90;;;;;;;;;;5042738;28;20075;-85
2022/02/20 14:28:30;;;;;;;2.80;0.88;;;;;;;;;;5058083;28;20057;-86
2022/02/20 14:31:05;;;;;;;3.70;0.93;;;;;;;;;;5060907;28;20021;-85
2022/02/20 14:33:34;;;;;;;4.22;0.80;;;;;;;;;;5040074;28;20017;-86
2022/02/20 14:36:02;;;;;;;5.13;1.20;;;;;;;;;;5058027;28;20037;-85
2022/02/20 14:38:28;;;;;;;2.45;0.82;;;;;;;;;;5044259;28;20073;-85
2022/02/20 14:40:54;;;;;;;3.17;1.10;;;;;;;;;;5041737;28;20032;-87
2022/02/20 14:43:20;;;;;;;3.53;1.30;;;;;;;;;;5040351;28;20399;-87
2022/02/20 14:45:47;;;;;;;4.35;1.10;;;;;;;;;;5058140;28;20065;-86